sensor_id;sensor_type;location;lat;lon;timestamp;P1;durP1;ratioP1;P2;durP2;ratioP2
8279;SDS011;8335;42.646;23.380;2023-12-04T00:02:24;10.40;;;6.77;;
8279;SDS011;8335;42.646;23.380;2023-12-04T00:04:51;10.27;;;6.80;;
8279;SDS011;8335;42.646;23.380;2023-12-04T00:07:17;12.43;;;7.57;;
8279;SDS011;8335;42.646;23.380;2023-12-04T00:09:44;12.33;;;6.70;;
8279;SDS011;8335;42.646;23.380;2023-12-04T00:12:11;10.63;;;6.20;;
8279;SDS011;8335;42.646;23.380;2023-12-04T00:14:39;10.40;;;6.37;;
8279;SDS011;8335;42.646;23.380;2023-12-04T00:17:06;9.47;;;6.47;;
8279;SDS011;8335;42.646;23.380;2023-12-04T00:19:32;11.30;;;7.10;;
8279;SDS011;8335;42.646;23.380;2023-12-04T00:21:59;11.93;;;6.80;;
8279;SDS011;8335;42.646;23.380;2023-12-04T00:24:26;10.60;;;7.20;;
8279;SDS011;8335;42.646;23.380;2023-12-04T00:26:52;10.57;;;6.77;;
8279;SDS011;8335;42.646;23.380;2023-12-04T00:29:19;10.73;;;6.40;;
8279;SDS011;8335;42.646;23.380;2023-12-04T00:31:47;11.43;;;6.20;;
8279;SDS011;8335;42.646;23.380;2023-12-04T00:34:14;11.33;;;7.23;;
8279;SDS011;8335;42.646;23.380;2023-12-04T00:36:41;9.63;;;6.23;;
8279;SDS011;8335;42.646;23.380;2023-12-04T00:39:07;10.10;;;6.30;;
8279;SDS011;8335;42.646;23.380;2023-12-04T00:41:34;10.23;;;6.63;;
8279;SDS011;8335;42.646;23.380;2023-12-04T00:44:01;10.17;;;6.67;;
8279;SDS011;8335;42.646;23.380;2023-12-04T00:46:27;8.97;;;6.03;;
8279;SDS011;8335;42.646;23.380;2023-12-04T00:48:55;10.47;;;5.70;;
8279;SDS011;8335;42.646;23.380;2023-12-04T00:51:22;9.97;;;6.10;;
8279;SDS011;8335;42.646;23.380;2023-12-04T00:53:49;9.70;;;5.87;;
8279;SDS011;8335;42.646;23.380;2023-12-04T00:56:15;12.20;;;6.43;;
8279;SDS011;8335;42.646;23.380;2023-12-04T00:58:43;9.57;;;6.47;;
8279;SDS011;8335;42.646;23.380;2023-12-04T01:01:10;10.53;;;6.30;;
8279;SDS011;8335;42.646;23.380;2023-12-04T01:03:37;10.70;;;6.77;;
8279;SDS011;8335;42.646;23.380;2023-12-04T01:06:05;10.07;;;6.33;;
8279;SDS011;8335;42.646;23.380;2023-12-04T01:08:33;9.47;;;6.40;;
8279;SDS011;8335;42.646;23.380;2023-12-04T01:10:59;8.97;;;5.67;;
8279;SDS011;8335;42.646;23.380;2023-12-04T01:13:26;9.87;;;6.47;;
8279;SDS011;8335;42.646;23.380;2023-12-04T01:15:52;11.37;;;6.70;;
8279;SDS011;8335;42.646;23.380;2023-12-04T01:18:19;9.23;;;6.23;;
8279;SDS011;8335;42.646;23.380;2023-12-04T01:20:46;10.07;;;6.80;;
8279;SDS011;8335;42.646;23.380;2023-12-04T01:23:14;12.07;;;6.50;;
8279;SDS011;8335;42.646;23.380;2023-12-04T01:25:41;11.60;;;6.87;;
8279;SDS011;8335;42.646;23.380;2023-12-04T01:28:07;8.63;;;5.87;;
8279;SDS011;8335;42.646;23.380;2023-12-04T01:30:34;10.13;;;6.27;;
8279;SDS011;8335;42.646;23.380;2023-12-04T01:33:01;10.67;;;7.03;;
8279;SDS011;8335;42.646;23.380;2023-12-04T01:35:27;10.23;;;6.47;;
8279;SDS011;8335;42.646;23.380;2023-12-04T01:37:54;10.10;;;6.50;;
8279;SDS011;8335;42.646;23.380;2023-12-04T01:40:22;10.30;;;6.93;;
8279;SDS011;8335;42.646;23.380;2023-12-04T01:42:49;11.97;;;6.33;;
8279;SDS011;8335;42.646;23.380;2023-12-04T01:45:15;10.70;;;7.10;;
8279;SDS011;8335;42.646;23.380;2023-12-04T01:47:42;9.30;;;6.23;;
8279;SDS011;8335;42.646;23.380;2023-12-04T01:50:09;11.13;;;7.00;;
8279;SDS011;8335;42.646;23.380;2023-12-04T01:52:36;10.27;;;6.40;;
8279;SDS011;8335;42.646;23.380;2023-12-04T01:55:03;10.43;;;6.77;;
8279;SDS011;8335;42.646;23.380;2023-12-04T01:57:33;11.63;;;6.20;;
8279;SDS011;8335;42.646;23.380;2023-12-04T02:00:01;9.80;;;6.50;;
8279;SDS011;8335;42.646;23.380;2023-12-04T02:02:28;9.30;;;6.67;;
8279;SDS011;8335;42.646;23.380;2023-12-04T02:04:55;10.00;;;6.40;;
8279;SDS011;8335;42.646;23.380;2023-12-04T02:07:24;11.40;;;6.57;;
8279;SDS011;8335;42.646;23.380;2023-12-04T02:09:51;12.30;;;7.23;;
8279;SDS011;8335;42.646;23.380;2023-12-04T02:12:18;11.53;;;6.93;;
8279;SDS011;8335;42.646;23.380;2023-12-04T02:14:46;12.33;;;7.13;;
8279;SDS011;8335;42.646;23.380;2023-12-04T02:17:13;11.97;;;7.37;;
8279;SDS011;8335;42.646;23.380;2023-12-04T02:19:42;14.33;;;7.67;;
8279;SDS011;8335;42.646;23.380;2023-12-04T02:22:09;9.87;;;7.27;;
8279;SDS011;8335;42.646;23.380;2023-12-04T02:24:37;11.23;;;7.03;;
8279;SDS011;8335;42.646;23.380;2023-12-04T02:27:04;10.30;;;6.83;;
8279;SDS011;8335;42.646;23.380;2023-12-04T02:29:37;11.03;;;7.23;;
8279;SDS011;8335;42.646;23.380;2023-12-04T02:32:10;11.90;;;6.77;;
8279;SDS011;8335;42.646;23.380;2023-12-04T02:34:41;9.43;;;6.13;;
8279;SDS011;8335;42.646;23.380;2023-12-04T02:37:10;10.70;;;7.23;;
8279;SDS011;8335;42.646;23.380;2023-12-04T02:39:40;9.53;;;6.63;;
8279;SDS011;8335;42.646;23.380;2023-12-04T02:42:08;10.93;;;6.90;;
8279;SDS011;8335;42.646;23.380;2023-12-04T02:44:34;10.03;;;6.23;;
8279;SDS011;8335;42.646;23.380;2023-12-04T02:47:01;12.53;;;7.57;;
8279;SDS011;8335;42.646;23.380;2023-12-04T02:49:28;10.97;;;6.97;;
8279;SDS011;8335;42.646;23.380;2023-12-04T02:51:55;10.97;;;6.53;;
8279;SDS011;8335;42.646;23.380;2023-12-04T02:54:22;10.00;;;6.23;;
8279;SDS011;8335;42.646;23.380;2023-12-04T02:56:50;10.10;;;6.40;;
8279;SDS011;8335;42.646;23.380;2023-12-04T02:59:17;10.50;;;5.83;;
8279;SDS011;8335;42.646;23.380;2023-12-04T03:01:44;10.63;;;6.80;;
8279;SDS011;8335;42.646;23.380;2023-12-04T03:04:10;9.57;;;5.90;;
8279;SDS011;8335;42.646;23.380;2023-12-04T03:06:37;11.30;;;6.63;;
8279;SDS011;8335;42.646;23.380;2023-12-04T03:09:04;10.93;;;5.93;;
8279;SDS011;8335;42.646;23.380;2023-12-04T03:11:31;11.43;;;6.50;;
8279;SDS011;8335;42.646;23.380;2023-12-04T03:13:59;9.70;;;6.37;;
8279;SDS011;8335;42.646;23.380;2023-12-04T03:16:26;9.83;;;6.50;;
8279;SDS011;8335;42.646;23.380;2023-12-04T03:18:53;11.13;;;6.93;;
8279;SDS011;8335;42.646;23.380;2023-12-04T03:21:20;11.60;;;6.73;;
8279;SDS011;8335;42.646;23.380;2023-12-04T03:23:46;12.43;;;7.13;;
8279;SDS011;8335;42.646;23.380;2023-12-04T03:26:13;11.17;;;6.70;;
8279;SDS011;8335;42.646;23.380;2023-12-04T03:28:40;9.40;;;5.90;;
8279;SDS011;8335;42.646;23.380;2023-12-04T03:31:08;9.90;;;6.57;;
8279;SDS011;8335;42.646;23.380;2023-12-04T03:33:35;10.87;;;7.33;;
8279;SDS011;8335;42.646;23.380;2023-12-04T03:36:02;9.53;;;6.77;;
8279;SDS011;8335;42.646;23.380;2023-12-04T03:38:30;11.17;;;7.17;;
8279;SDS011;8335;42.646;23.380;2023-12-04T03:40:56;11.57;;;6.93;;
8279;SDS011;8335;42.646;23.380;2023-12-04T03:43:23;11.63;;;6.93;;
8279;SDS011;8335;42.646;23.380;2023-12-04T03:45:50;12.40;;;6.73;;
8279;SDS011;8335;42.646;23.380;2023-12-04T03:48:18;11.27;;;6.47;;
8279;SDS011;8335;42.646;23.380;2023-12-04T03:50:44;9.40;;;5.90;;
8279;SDS011;8335;42.646;23.380;2023-12-04T03:53:11;9.93;;;6.60;;
8279;SDS011;8335;42.646;23.380;2023-12-04T03:55:38;10.43;;;6.50;;
8279;SDS011;8335;42.646;23.380;2023-12-04T03:58:05;11.17;;;6.57;;
8279;SDS011;8335;42.646;23.380;2023-12-04T04:00:32;10.57;;;6.43;;
8279;SDS011;8335;42.646;23.380;2023-12-04T04:02:59;11.33;;;6.73;;
8279;SDS011;8335;42.646;23.380;2023-12-04T04:05:27;10.67;;;6.57;;
8279;SDS011;8335;42.646;23.380;2023-12-04T04:07:54;10.17;;;6.83;;
8279;SDS011;8335;42.646;23.380;2023-12-04T04:10:21;10.30;;;6.30;;
8279;SDS011;8335;42.646;23.380;2023-12-04T04:12:47;10.43;;;6.67;;
8279;SDS011;8335;42.646;23.380;2023-12-04T04:15:14;10.27;;;6.57;;
8279;SDS011;8335;42.646;23.380;2023-12-04T04:17:41;10.87;;;6.27;;
8279;SDS011;8335;42.646;23.380;2023-12-04T04:20:08;9.37;;;6.43;;
8279;SDS011;8335;42.646;23.380;2023-12-04T04:22:38;11.33;;;7.00;;
8279;SDS011;8335;42.646;23.380;2023-12-04T04:25:06;10.60;;;6.53;;
8279;SDS011;8335;42.646;23.380;2023-12-04T04:27:33;10.37;;;6.57;;
8279;SDS011;8335;42.646;23.380;2023-12-04T04:30:00;11.50;;;7.17;;
8279;SDS011;8335;42.646;23.380;2023-12-04T04:32:28;15.10;;;7.13;;
8279;SDS011;8335;42.646;23.380;2023-12-04T04:34:54;12.73;;;7.30;;
8279;SDS011;8335;42.646;23.380;2023-12-04T04:37:21;11.83;;;7.10;;
8279;SDS011;8335;42.646;23.380;2023-12-04T04:39:49;11.87;;;7.17;;
8279;SDS011;8335;42.646;23.380;2023-12-04T04:42:16;9.13;;;6.10;;
8279;SDS011;8335;42.646;23.380;2023-12-04T04:44:42;11.10;;;6.23;;
8279;SDS011;8335;42.646;23.380;2023-12-04T04:47:09;10.73;;;6.57;;
8279;SDS011;8335;42.646;23.380;2023-12-04T04:49:36;10.90;;;7.00;;
8279;SDS011;8335;42.646;23.380;2023-12-04T04:52:03;10.67;;;6.67;;
8279;SDS011;8335;42.646;23.380;2023-12-04T04:54:30;11.10;;;6.63;;
8279;SDS011;8335;42.646;23.380;2023-12-04T04:56:59;12.50;;;6.80;;
8279;SDS011;8335;42.646;23.380;2023-12-04T04:59:25;12.60;;;7.07;;
8279;SDS011;8335;42.646;23.380;2023-12-04T05:01:55;10.73;;;6.77;;
8279;SDS011;8335;42.646;23.380;2023-12-04T05:04:22;10.27;;;6.57;;
8279;SDS011;8335;42.646;23.380;2023-12-04T05:06:48;14.40;;;7.43;;
8279;SDS011;8335;42.646;23.380;2023-12-04T05:09:15;10.93;;;6.63;;
8279;SDS011;8335;42.646;23.380;2023-12-04T05:11:42;10.63;;;6.27;;
8279;SDS011;8335;42.646;23.380;2023-12-04T05:14:10;10.97;;;7.00;;
8279;SDS011;8335;42.646;23.380;2023-12-04T05:16:37;8.93;;;6.27;;
8279;SDS011;8335;42.646;23.380;2023-12-04T05:19:03;10.50;;;6.97;;
8279;SDS011;8335;42.646;23.380;2023-12-04T05:21:31;14.67;;;6.60;;
8279;SDS011;8335;42.646;23.380;2023-12-04T05:23:57;10.17;;;6.50;;
8279;SDS011;8335;42.646;23.380;2023-12-04T05:26:24;12.30;;;6.80;;
8279;SDS011;8335;42.646;23.380;2023-12-04T05:28:51;12.00;;;6.93;;
8279;SDS011;8335;42.646;23.380;2023-12-04T05:31:19;11.00;;;7.40;;
8279;SDS011;8335;42.646;23.380;2023-12-04T05:33:45;13.77;;;6.20;;
8279;SDS011;8335;42.646;23.380;2023-12-04T05:36:12;11.43;;;6.80;;
8279;SDS011;8335;42.646;23.380;2023-12-04T05:38:39;10.77;;;6.37;;
8279;SDS011;8335;42.646;23.380;2023-12-04T05:41:06;9.70;;;6.47;;
8279;SDS011;8335;42.646;23.380;2023-12-04T05:43:32;10.67;;;7.10;;
8279;SDS011;8335;42.646;23.380;2023-12-04T05:45:59;12.60;;;7.30;;
8279;SDS011;8335;42.646;23.380;2023-12-04T05:48:28;10.47;;;6.77;;
8279;SDS011;8335;42.646;23.380;2023-12-04T05:50:55;10.83;;;6.77;;
8279;SDS011;8335;42.646;23.380;2023-12-04T05:53:21;13.60;;;7.80;;
8279;SDS011;8335;42.646;23.380;2023-12-04T05:55:48;11.60;;;7.43;;
8279;SDS011;8335;42.646;23.380;2023-12-04T05:58:15;11.90;;;7.90;;
8279;SDS011;8335;42.646;23.380;2023-12-04T06:00:41;10.73;;;6.77;;
8279;SDS011;8335;42.646;23.380;2023-12-04T06:03:08;12.50;;;7.27;;
8279;SDS011;8335;42.646;23.380;2023-12-04T06:05:36;12.63;;;7.63;;
8279;SDS011;8335;42.646;23.380;2023-12-04T06:08:03;12.80;;;7.70;;
8279;SDS011;8335;42.646;23.380;2023-12-04T06:10:30;12.00;;;7.33;;
8279;SDS011;8335;42.646;23.380;2023-12-04T06:13:00;13.53;;;7.87;;
8279;SDS011;8335;42.646;23.380;2023-12-04T06:15:26;12.47;;;8.03;;
8279;SDS011;8335;42.646;23.380;2023-12-04T06:17:53;13.90;;;8.67;;
8279;SDS011;8335;42.646;23.380;2023-12-04T06:20:20;12.17;;;7.53;;
8279;SDS011;8335;42.646;23.380;2023-12-04T06:22:48;13.03;;;8.37;;
8279;SDS011;8335;42.646;23.380;2023-12-04T06:25:15;15.07;;;7.93;;
8279;SDS011;8335;42.646;23.380;2023-12-04T06:27:43;13.57;;;7.80;;
8279;SDS011;8335;42.646;23.380;2023-12-04T06:30:11;12.10;;;7.60;;
8279;SDS011;8335;42.646;23.380;2023-12-04T06:32:38;12.93;;;7.87;;
8279;SDS011;8335;42.646;23.380;2023-12-04T06:35:05;13.27;;;7.87;;
8279;SDS011;8335;42.646;23.380;2023-12-04T06:37:34;11.53;;;7.73;;
8279;SDS011;8335;42.646;23.380;2023-12-04T06:40:04;16.13;;;8.37;;
8279;SDS011;8335;42.646;23.380;2023-12-04T06:42:33;11.67;;;7.63;;
8279;SDS011;8335;42.646;23.380;2023-12-04T06:45:01;12.83;;;7.03;;
8279;SDS011;8335;42.646;23.380;2023-12-04T06:47:28;13.57;;;8.17;;
8279;SDS011;8335;42.646;23.380;2023-12-04T06:49:57;12.03;;;7.90;;
8279;SDS011;8335;42.646;23.380;2023-12-04T06:52:24;13.33;;;7.63;;
8279;SDS011;8335;42.646;23.380;2023-12-04T06:54:51;13.63;;;8.17;;
8279;SDS011;8335;42.646;23.380;2023-12-04T06:57:19;11.83;;;7.40;;
8279;SDS011;8335;42.646;23.380;2023-12-04T06:59:46;15.33;;;8.10;;
8279;SDS011;8335;42.646;23.380;2023-12-04T07:02:12;13.50;;;7.83;;
8279;SDS011;8335;42.646;23.380;2023-12-04T07:04:39;14.17;;;9.03;;
8279;SDS011;8335;42.646;23.380;2023-12-04T07:07:06;16.77;;;8.20;;
8279;SDS011;8335;42.646;23.380;2023-12-04T07:09:32;12.20;;;7.93;;
8279;SDS011;8335;42.646;23.380;2023-12-04T07:12:00;15.00;;;8.43;;
8279;SDS011;8335;42.646;23.380;2023-12-04T07:14:29;16.03;;;7.73;;
8279;SDS011;8335;42.646;23.380;2023-12-04T07:16:55;12.53;;;7.53;;
8279;SDS011;8335;42.646;23.380;2023-12-04T07:19:22;12.23;;;7.73;;
8279;SDS011;8335;42.646;23.380;2023-12-04T07:21:49;15.40;;;7.70;;
8279;SDS011;8335;42.646;23.380;2023-12-04T07:24:15;14.70;;;7.83;;
8279;SDS011;8335;42.646;23.380;2023-12-04T07:26:42;11.03;;;7.60;;
8279;SDS011;8335;42.646;23.380;2023-12-04T07:29:09;12.30;;;8.00;;
8279;SDS011;8335;42.646;23.380;2023-12-04T07:31:38;12.80;;;7.87;;
8279;SDS011;8335;42.646;23.380;2023-12-04T07:34:04;14.53;;;8.57;;
8279;SDS011;8335;42.646;23.380;2023-12-04T07:36:31;14.17;;;8.60;;
8279;SDS011;8335;42.646;23.380;2023-12-04T07:38:58;12.93;;;8.17;;
8279;SDS011;8335;42.646;23.380;2023-12-04T07:41:24;16.13;;;8.67;;
8279;SDS011;8335;42.646;23.380;2023-12-04T07:43:51;12.83;;;7.83;;
8279;SDS011;8335;42.646;23.380;2023-12-04T07:46:19;13.33;;;8.17;;
8279;SDS011;8335;42.646;23.380;2023-12-04T07:48:47;11.57;;;7.50;;
8279;SDS011;8335;42.646;23.380;2023-12-04T07:51:14;15.57;;;8.30;;
8279;SDS011;8335;42.646;23.380;2023-12-04T07:53:41;13.57;;;7.13;;
8279;SDS011;8335;42.646;23.380;2023-12-04T07:56:08;13.87;;;7.93;;
8279;SDS011;8335;42.646;23.380;2023-12-04T07:58:35;11.63;;;7.10;;
8279;SDS011;8335;42.646;23.380;2023-12-04T08:01:02;10.67;;;6.87;;
8279;SDS011;8335;42.646;23.380;2023-12-04T08:03:30;11.97;;;7.20;;
8279;SDS011;8335;42.646;23.380;2023-12-04T08:05:58;10.20;;;6.60;;
8279;SDS011;8335;42.646;23.380;2023-12-04T08:08:25;12.20;;;6.87;;
8279;SDS011;8335;42.646;23.380;2023-12-04T08:10:52;9.10;;;6.90;;
8279;SDS011;8335;42.646;23.380;2023-12-04T08:13:19;11.40;;;7.07;;
8279;SDS011;8335;42.646;23.380;2023-12-04T08:15:46;11.10;;;7.13;;
8279;SDS011;8335;42.646;23.380;2023-12-04T08:18:12;11.33;;;7.93;;
8279;SDS011;8335;42.646;23.380;2023-12-04T08:20:39;12.50;;;6.80;;
8279;SDS011;8335;42.646;23.380;2023-12-04T08:23:07;10.80;;;6.67;;
8279;SDS011;8335;42.646;23.380;2023-12-04T08:25:34;8.30;;;6.00;;
8279;SDS011;8335;42.646;23.380;2023-12-04T08:28:02;11.23;;;7.23;;
8279;SDS011;8335;42.646;23.380;2023-12-04T08:30:29;9.77;;;6.67;;
8279;SDS011;8335;42.646;23.380;2023-12-04T08:32:56;9.23;;;5.87;;
8279;SDS011;8335;42.646;23.380;2023-12-04T08:35:23;7.87;;;5.47;;
8279;SDS011;8335;42.646;23.380;2023-12-04T08:37:49;8.07;;;5.73;;
8279;SDS011;8335;42.646;23.380;2023-12-04T08:40:18;8.70;;;5.20;;
8279;SDS011;8335;42.646;23.380;2023-12-04T08:42:44;7.10;;;5.17;;
8279;SDS011;8335;42.646;23.380;2023-12-04T08:45:11;8.93;;;5.77;;
8279;SDS011;8335;42.646;23.380;2023-12-04T08:47:38;8.07;;;5.53;;
8279;SDS011;8335;42.646;23.380;2023-12-04T08:50:05;8.67;;;5.37;;
8279;SDS011;8335;42.646;23.380;2023-12-04T08:52:34;9.57;;;5.83;;
8279;SDS011;8335;42.646;23.380;2023-12-04T08:55:01;6.87;;;5.33;;
8279;SDS011;8335;42.646;23.380;2023-12-04T08:57:29;6.63;;;5.20;;
8279;SDS011;8335;42.646;23.380;2023-12-04T08:59:56;10.10;;;5.33;;
8279;SDS011;8335;42.646;23.380;2023-12-04T09:02:23;7.20;;;5.60;;
8279;SDS011;8335;42.646;23.380;2023-12-04T09:04:50;8.93;;;5.30;;
8279;SDS011;8335;42.646;23.380;2023-12-04T09:07:17;9.03;;;5.53;;
8279;SDS011;8335;42.646;23.380;2023-12-04T09:09:43;7.37;;;5.10;;
8279;SDS011;8335;42.646;23.380;2023-12-04T09:12:11;7.00;;;5.20;;
8279;SDS011;8335;42.646;23.380;2023-12-04T09:14:39;7.63;;;5.43;;
8279;SDS011;8335;42.646;23.380;2023-12-04T09:17:06;6.57;;;5.13;;
8279;SDS011;8335;42.646;23.380;2023-12-04T09:19:33;7.37;;;4.60;;
8279;SDS011;8335;42.646;23.380;2023-12-04T09:22:00;11.67;;;5.03;;
8279;SDS011;8335;42.646;23.380;2023-12-04T09:24:26;8.20;;;4.77;;
8279;SDS011;8335;42.646;23.380;2023-12-04T09:26:53;5.83;;;4.87;;
8279;SDS011;8335;42.646;23.380;2023-12-04T09:29:20;9.53;;;5.53;;
8279;SDS011;8335;42.646;23.380;2023-12-04T09:31:50;6.70;;;5.10;;
8279;SDS011;8335;42.646;23.380;2023-12-04T09:34:17;6.70;;;5.27;;
8279;SDS011;8335;42.646;23.380;2023-12-04T09:36:45;7.67;;;5.83;;
8279;SDS011;8335;42.646;23.380;2023-12-04T09:39:12;6.80;;;5.30;;
8279;SDS011;8335;42.646;23.380;2023-12-04T09:41:39;7.27;;;5.53;;
8279;SDS011;8335;42.646;23.380;2023-12-04T09:44:08;7.53;;;4.73;;
8279;SDS011;8335;42.646;23.380;2023-12-04T09:46:35;6.60;;;4.97;;
8279;SDS011;8335;42.646;23.380;2023-12-04T09:49:03;9.00;;;5.23;;
8279;SDS011;8335;42.646;23.380;2023-12-04T09:51:31;8.00;;;5.30;;
8279;SDS011;8335;42.646;23.380;2023-12-04T09:53:59;8.87;;;5.37;;
8279;SDS011;8335;42.646;23.380;2023-12-04T09:56:29;7.57;;;5.50;;
8279;SDS011;8335;42.646;23.380;2023-12-04T09:58:57;8.37;;;5.23;;
8279;SDS011;8335;42.646;23.380;2023-12-04T10:01:26;6.33;;;4.87;;
8279;SDS011;8335;42.646;23.380;2023-12-04T10:03:54;5.93;;;4.50;;
8279;SDS011;8335;42.646;23.380;2023-12-04T10:06:24;9.70;;;5.80;;
8279;SDS011;8335;42.646;23.380;2023-12-04T10:08:53;7.53;;;5.40;;
8279;SDS011;8335;42.646;23.380;2023-12-04T10:11:20;10.60;;;5.93;;
8279;SDS011;8335;42.646;23.380;2023-12-04T10:13:48;7.20;;;5.57;;
8279;SDS011;8335;42.646;23.380;2023-12-04T10:16:14;8.93;;;5.53;;
8279;SDS011;8335;42.646;23.380;2023-12-04T10:18:57;11.07;;;5.67;;
8279;SDS011;8335;42.646;23.380;2023-12-04T10:21:25;11.47;;;6.63;;
8279;SDS011;8335;42.646;23.380;2023-12-04T10:23:58;11.13;;;5.57;;
8279;SDS011;8335;42.646;23.380;2023-12-04T10:26:25;8.20;;;5.27;;
8279;SDS011;8335;42.646;23.380;2023-12-04T10:29:01;7.90;;;5.37;;
8279;SDS011;8335;42.646;23.380;2023-12-04T10:31:31;7.87;;;5.37;;
8279;SDS011;8335;42.646;23.380;2023-12-04T10:33:58;8.50;;;5.57;;
8279;SDS011;8335;42.646;23.380;2023-12-04T10:36:26;8.87;;;5.80;;
8279;SDS011;8335;42.646;23.380;2023-12-04T10:38:57;7.00;;;5.20;;
8279;SDS011;8335;42.646;23.380;2023-12-04T10:41:25;6.73;;;4.80;;
8279;SDS011;8335;42.646;23.380;2023-12-04T10:43:52;6.30;;;4.10;;
8279;SDS011;8335;42.646;23.380;2023-12-04T10:46:22;8.10;;;5.30;;
8279;SDS011;8335;42.646;23.380;2023-12-04T10:48:52;7.17;;;5.70;;
8279;SDS011;8335;42.646;23.380;2023-12-04T10:51:20;7.80;;;6.00;;
8279;SDS011;8335;42.646;23.380;2023-12-04T10:53:49;8.20;;;5.60;;
8279;SDS011;8335;42.646;23.380;2023-12-04T10:56:19;6.63;;;4.40;;
8279;SDS011;8335;42.646;23.380;2023-12-04T10:58:51;7.27;;;5.17;;
8279;SDS011;8335;42.646;23.380;2023-12-04T11:01:19;10.83;;;5.13;;
8279;SDS011;8335;42.646;23.380;2023-12-04T11:03:51;6.47;;;4.63;;
8279;SDS011;8335;42.646;23.380;2023-12-04T11:06:19;8.87;;;5.27;;
8279;SDS011;8335;42.646;23.380;2023-12-04T11:08:50;6.67;;;4.93;;
8279;SDS011;8335;42.646;23.380;2023-12-04T11:11:23;10.70;;;5.23;;
8279;SDS011;8335;42.646;23.380;2023-12-04T11:13:54;8.90;;;6.33;;
8279;SDS011;8335;42.646;23.380;2023-12-04T11:16:27;7.33;;;5.30;;
8279;SDS011;8335;42.646;23.380;2023-12-04T11:18:59;10.03;;;5.87;;
8279;SDS011;8335;42.646;23.380;2023-12-04T11:21:30;8.57;;;5.43;;
8279;SDS011;8335;42.646;23.380;2023-12-04T11:24:00;10.93;;;6.00;;
8279;SDS011;8335;42.646;23.380;2023-12-04T11:26:28;12.17;;;6.30;;
8279;SDS011;8335;42.646;23.380;2023-12-04T11:28:55;11.50;;;6.67;;
8279;SDS011;8335;42.646;23.380;2023-12-04T11:31:22;10.23;;;6.00;;
8279;SDS011;8335;42.646;23.380;2023-12-04T11:33:50;8.60;;;5.83;;
8279;SDS011;8335;42.646;23.380;2023-12-04T11:36:16;8.40;;;6.07;;
8279;SDS011;8335;42.646;23.380;2023-12-04T11:38:44;13.67;;;7.83;;
8279;SDS011;8335;42.646;23.380;2023-12-04T11:41:17;12.93;;;7.40;;
8279;SDS011;8335;42.646;23.380;2023-12-04T11:43:45;11.17;;;7.37;;
8279;SDS011;8335;42.646;23.380;2023-12-04T11:46:12;9.40;;;6.03;;
8279;SDS011;8335;42.646;23.380;2023-12-04T11:48:45;8.87;;;6.60;;
8279;SDS011;8335;42.646;23.380;2023-12-04T11:51:14;11.53;;;6.20;;
8279;SDS011;8335;42.646;23.380;2023-12-04T11:54:01;10.63;;;6.13;;
8279;SDS011;8335;42.646;23.380;2023-12-04T11:56:31;10.47;;;5.83;;
8279;SDS011;8335;42.646;23.380;2023-12-04T11:59:02;10.63;;;6.20;;
8279;SDS011;8335;42.646;23.380;2023-12-04T12:01:32;7.87;;;5.83;;
8279;SDS011;8335;42.646;23.380;2023-12-04T12:03:59;8.90;;;6.80;;
8279;SDS011;8335;42.646;23.380;2023-12-04T12:06:27;11.37;;;5.87;;
8279;SDS011;8335;42.646;23.380;2023-12-04T12:08:56;10.83;;;6.67;;
8279;SDS011;8335;42.646;23.380;2023-12-04T12:11:23;9.77;;;6.43;;
8279;SDS011;8335;42.646;23.380;2023-12-04T12:13:53;8.17;;;6.07;;
8279;SDS011;8335;42.646;23.380;2023-12-04T12:16:20;11.07;;;6.73;;
8279;SDS011;8335;42.646;23.380;2023-12-04T12:18:46;10.63;;;6.97;;
8279;SDS011;8335;42.646;23.380;2023-12-04T12:21:13;9.47;;;6.43;;
8279;SDS011;8335;42.646;23.380;2023-12-04T12:23:40;14.53;;;6.97;;
8279;SDS011;8335;42.646;23.380;2023-12-04T12:26:07;11.37;;;6.90;;
8279;SDS011;8335;42.646;23.380;2023-12-04T12:28:34;9.90;;;7.07;;
8279;SDS011;8335;42.646;23.380;2023-12-04T12:31:03;11.10;;;8.30;;
8279;SDS011;8335;42.646;23.380;2023-12-04T12:33:30;9.27;;;6.93;;
8279;SDS011;8335;42.646;23.380;2023-12-04T12:35:57;11.70;;;7.47;;
8279;SDS011;8335;42.646;23.380;2023-12-04T12:38:25;9.77;;;6.77;;
8279;SDS011;8335;42.646;23.380;2023-12-04T12:40:51;12.23;;;8.20;;
8279;SDS011;8335;42.646;23.380;2023-12-04T12:43:19;13.27;;;8.77;;
8279;SDS011;8335;42.646;23.380;2023-12-04T12:45:48;18.50;;;9.47;;
8279;SDS011;8335;42.646;23.380;2023-12-04T12:48:16;15.00;;;9.13;;
8279;SDS011;8335;42.646;23.380;2023-12-04T12:50:43;16.27;;;9.10;;
8279;SDS011;8335;42.646;23.380;2023-12-04T12:53:11;15.50;;;8.83;;
8279;SDS011;8335;42.646;23.380;2023-12-04T12:55:38;15.43;;;9.67;;
8279;SDS011;8335;42.646;23.380;2023-12-04T12:58:05;13.40;;;7.70;;
8279;SDS011;8335;42.646;23.380;2023-12-04T13:00:32;15.90;;;8.90;;
8279;SDS011;8335;42.646;23.380;2023-12-04T13:02:59;13.93;;;8.50;;
8279;SDS011;8335;42.646;23.380;2023-12-04T13:05:27;15.60;;;9.53;;
8279;SDS011;8335;42.646;23.380;2023-12-04T13:07:54;13.63;;;8.23;;
8279;SDS011;8335;42.646;23.380;2023-12-04T13:10:22;15.83;;;8.50;;
8279;SDS011;8335;42.646;23.380;2023-12-04T13:12:49;16.90;;;8.73;;
8279;SDS011;8335;42.646;23.380;2023-12-04T13:15:18;19.40;;;10.10;;
8279;SDS011;8335;42.646;23.380;2023-12-04T13:17:45;20.63;;;12.17;;
8279;SDS011;8335;42.646;23.380;2023-12-04T13:20:11;21.20;;;12.00;;
8279;SDS011;8335;42.646;23.380;2023-12-04T13:22:41;20.17;;;11.80;;
8279;SDS011;8335;42.646;23.380;2023-12-04T13:25:08;23.83;;;11.90;;
8279;SDS011;8335;42.646;23.380;2023-12-04T13:27:35;24.20;;;11.50;;
8279;SDS011;8335;42.646;23.380;2023-12-04T13:30:04;24.80;;;12.97;;
8279;SDS011;8335;42.646;23.380;2023-12-04T13:32:31;22.93;;;11.93;;
8279;SDS011;8335;42.646;23.380;2023-12-04T13:34:59;22.73;;;12.73;;
8279;SDS011;8335;42.646;23.380;2023-12-04T13:37:25;21.10;;;12.63;;
8279;SDS011;8335;42.646;23.380;2023-12-04T13:39:54;21.50;;;11.43;;
8279;SDS011;8335;42.646;23.380;2023-12-04T13:42:23;20.33;;;10.93;;
8279;SDS011;8335;42.646;23.380;2023-12-04T13:45:07;17.63;;;10.23;;
8279;SDS011;8335;42.646;23.380;2023-12-04T13:47:35;25.40;;;11.33;;
8279;SDS011;8335;42.646;23.380;2023-12-04T13:50:03;24.70;;;11.37;;
8279;SDS011;8335;42.646;23.380;2023-12-04T13:52:31;23.43;;;11.07;;
8279;SDS011;8335;42.646;23.380;2023-12-04T13:55:00;21.60;;;10.63;;
8279;SDS011;8335;42.646;23.380;2023-12-04T13:57:36;18.37;;;10.53;;
8279;SDS011;8335;42.646;23.380;2023-12-04T14:00:14;17.00;;;9.53;;
8279;SDS011;8335;42.646;23.380;2023-12-04T14:02:41;19.30;;;10.83;;
8279;SDS011;8335;42.646;23.380;2023-12-04T14:05:08;17.73;;;10.67;;
8279;SDS011;8335;42.646;23.380;2023-12-04T14:07:40;22.27;;;10.60;;
8279;SDS011;8335;42.646;23.380;2023-12-04T14:10:10;17.67;;;10.73;;
8279;SDS011;8335;42.646;23.380;2023-12-04T14:12:36;22.93;;;10.70;;
8279;SDS011;8335;42.646;23.380;2023-12-04T14:15:03;24.90;;;11.07;;
8279;SDS011;8335;42.646;23.380;2023-12-04T14:17:31;18.73;;;9.87;;
8279;SDS011;8335;42.646;23.380;2023-12-04T14:19:58;24.77;;;10.33;;
8279;SDS011;8335;42.646;23.380;2023-12-04T14:22:25;19.40;;;10.20;;
8279;SDS011;8335;42.646;23.380;2023-12-04T14:24:52;22.27;;;11.10;;
8279;SDS011;8335;42.646;23.380;2023-12-04T14:27:20;17.20;;;10.27;;
8279;SDS011;8335;42.646;23.380;2023-12-04T14:29:46;20.43;;;10.77;;
8279;SDS011;8335;42.646;23.380;2023-12-04T14:32:13;14.63;;;9.17;;
8279;SDS011;8335;42.646;23.380;2023-12-04T14:34:40;17.43;;;10.07;;
8279;SDS011;8335;42.646;23.380;2023-12-04T14:37:06;17.23;;;9.17;;
8279;SDS011;8335;42.646;23.380;2023-12-04T14:39:35;23.67;;;9.70;;
8279;SDS011;8335;42.646;23.380;2023-12-04T14:42:01;16.47;;;9.90;;
8279;SDS011;8335;42.646;23.380;2023-12-04T14:44:30;16.53;;;9.93;;
8279;SDS011;8335;42.646;23.380;2023-12-04T14:46:57;18.90;;;9.90;;
8279;SDS011;8335;42.646;23.380;2023-12-04T14:49:24;14.57;;;9.37;;
8279;SDS011;8335;42.646;23.380;2023-12-04T14:51:51;17.37;;;9.43;;
8279;SDS011;8335;42.646;23.380;2023-12-04T14:54:17;15.77;;;9.47;;